createdAt,value
2018-03-26T00:01:30.392Z,24.27
2018-03-26T00:03:58.013Z,27.80
2018-03-26T00:06:25.627Z,22.83
2018-03-26T00:08:53.284Z,30.00
2018-03-26T00:11:20.897Z,31.57
2018-03-26T00:13:48.515Z,25.43
2018-03-26T00:16:16.919Z,29.93
2018-03-26T00:18:44.686Z,25.37
2018-03-26T00:21:12.459Z,26.93
2018-03-26T00:23:40.081Z,29.63
2018-03-26T00:26:08.445Z,27.70
2018-03-26T00:28:36.118Z,27.97
2018-03-26T00:31:03.721Z,30.93
2018-03-26T00:33:31.367Z,24.60
2018-03-26T00:35:59.746Z,32.37
2018-03-26T00:38:28.489Z,37.43
2018-03-26T00:40:56.086Z,37.30
2018-03-26T00:43:23.898Z,35.53
2018-03-26T00:45:51.540Z,29.87
2018-03-26T00:50:53.999Z,34.33
2018-03-26T00:53:33.472Z,28.70
2018-03-26T00:56:01.864Z,26.97
2018-03-26T00:58:30.241Z,31.50
2018-03-26T01:00:58.606Z,28.37
2018-03-26T01:03:26.240Z,27.03
2018-03-26T01:05:53.852Z,28.73
2018-03-26T01:08:22.584Z,28.43
2018-03-26T01:10:50.180Z,26.13
2018-03-26T01:13:18.548Z,25.43
2018-03-26T01:15:46.186Z,31.33
2018-03-26T01:18:13.974Z,30.30
2018-03-26T01:20:41.540Z,28.77
2018-03-26T01:23:12.049Z,28.07
2018-03-26T01:25:39.746Z,27.97
2018-03-26T01:28:07.338Z,33.67
2018-03-26T01:30:34.989Z,34.47
2018-03-26T01:33:02.619Z,31.00
2018-03-26T01:35:30.287Z,29.13
2018-03-26T01:37:57.886Z,29.50
2018-03-26T01:40:25.480Z,29.10
2018-03-26T01:42:53.856Z,27.07
2018-03-26T01:45:21.500Z,35.30
2018-03-26T01:47:49.086Z,30.47
2018-03-26T01:50:16.746Z,28.37
2018-03-26T01:52:45.832Z,27.97
2018-03-26T01:55:13.588Z,30.80
2018-03-26T01:57:41.227Z,27.27
2018-03-26T02:00:08.832Z,29.67
2018-03-26T02:02:36.417Z,26.93
2018-03-26T02:05:04.804Z,31.83
2018-03-26T02:07:32.427Z,30.83
2018-03-26T02:10:00.030Z,33.13
2018-03-26T02:12:27.845Z,35.27
2018-03-26T02:14:55.421Z,32.43
2018-03-26T02:17:23.381Z,28.37
2018-03-26T02:19:50.986Z,29.37
2018-03-26T02:22:18.693Z,35.70
2018-03-26T02:24:47.061Z,33.50
2018-03-26T02:27:14.666Z,33.00
2018-03-26T02:29:42.291Z,40.57
2018-03-26T02:32:09.989Z,33.50
2018-03-26T02:34:37.894Z,32.10
2018-03-26T02:37:05.558Z,31.60
2018-03-26T02:39:33.219Z,35.20
2018-03-26T02:42:00.834Z,27.97
2018-03-26T02:44:29.202Z,26.73
2018-03-26T02:46:57.588Z,35.77
2018-03-26T02:49:25.193Z,32.70
2018-03-26T02:51:52.804Z,32.17
2018-03-26T02:54:20.388Z,28.33
2018-03-26T02:56:48.108Z,33.87
2018-03-26T02:59:15.745Z,35.27
2018-03-26T03:01:44.103Z,34.33
2018-03-26T03:04:11.761Z,26.80
2018-03-26T03:06:39.362Z,28.60
2018-03-26T03:09:07.772Z,30.83
2018-03-26T03:11:35.482Z,28.60
2018-03-26T03:14:03.817Z,36.00
2018-03-26T03:16:31.446Z,28.77
2018-03-26T03:18:59.845Z,34.07
2018-03-26T03:21:28.225Z,30.67
2018-03-26T03:23:56.581Z,34.07
2018-03-26T03:26:24.623Z,30.53
2018-03-26T03:28:52.202Z,33.17
2018-03-26T03:31:19.953Z,29.23
2018-03-26T03:33:47.809Z,32.40
2018-03-26T03:36:15.401Z,27.17
2018-03-26T03:38:43.033Z,34.60
2018-03-26T03:41:11.381Z,31.53
2018-03-26T03:43:39.319Z,28.60
2018-03-26T03:46:06.913Z,36.27
2018-03-26T03:48:34.627Z,37.33
2018-03-26T03:51:02.244Z,29.03
2018-03-26T03:53:29.830Z,32.20
2018-03-26T03:55:58.214Z,33.00
2018-03-26T03:58:26.587Z,31.47
2018-03-26T04:00:54.486Z,31.07
2018-03-26T04:03:22.080Z,30.67
2018-03-26T04:05:49.671Z,34.10
2018-03-26T04:08:17.417Z,28.27
2018-03-26T04:10:45.016Z,30.10
2018-03-26T04:13:14.129Z,27.70
2018-03-26T04:15:41.730Z,33.00
2018-03-26T04:18:09.351Z,25.00
2018-03-26T04:20:37.051Z,28.90
2018-03-26T04:23:04.645Z,32.37
2018-03-26T04:25:32.265Z,27.43
2018-03-26T04:28:00.651Z,29.13
2018-03-26T04:30:29.035Z,29.20
2018-03-26T04:32:57.417Z,27.30
2018-03-26T04:35:25.803Z,35.60
2018-03-26T04:37:54.257Z,26.40
2018-03-26T04:40:21.861Z,37.87
2018-03-26T04:42:49.500Z,32.20
2018-03-26T04:45:17.106Z,31.70
2018-03-26T04:47:44.865Z,33.20
2018-03-26T04:50:12.654Z,29.40
2018-03-26T04:52:40.240Z,33.30
2018-03-26T04:55:08.112Z,34.17
2018-03-26T04:57:35.928Z,33.07
2018-03-26T05:00:04.296Z,30.60
2018-03-26T05:02:32.020Z,32.40
2018-03-26T05:04:59.610Z,34.57
2018-03-26T05:07:27.227Z,29.73
2018-03-26T05:09:54.813Z,34.40
2018-03-26T05:12:22.466Z,31.40
2018-03-26T05:14:50.084Z,25.87
2018-03-26T05:17:17.685Z,30.40
2018-03-26T05:19:45.289Z,28.70
2018-03-26T05:22:12.885Z,33.80
2018-03-26T05:24:40.525Z,37.70
2018-03-26T05:27:08.247Z,31.03
2018-03-26T05:29:35.902Z,28.20
2018-03-26T05:32:04.293Z,33.00
2018-03-26T05:34:32.675Z,124.90
2018-03-26T05:37:01.053Z,101.43
2018-03-26T05:39:29.423Z,54.47
2018-03-26T05:41:57.058Z,51.17
2018-03-26T05:44:24.668Z,39.53
2018-03-26T05:46:53.141Z,48.80
2018-03-26T05:49:20.746Z,40.40
2018-03-26T05:51:48.356Z,28.70
2018-03-26T05:54:16.312Z,39.17
2018-03-26T05:56:43.927Z,36.80
2018-03-26T05:59:11.529Z,34.63
2018-03-26T06:01:39.154Z,40.67
2018-03-26T06:04:07.507Z,28.93
2018-03-26T06:06:35.146Z,37.23
2018-03-26T06:09:02.746Z,45.13
2018-03-26T06:11:31.899Z,42.23
2018-03-26T06:13:59.506Z,37.13
2018-03-26T06:16:27.114Z,31.87
2018-03-26T06:18:55.486Z,29.13
2018-03-26T06:21:23.855Z,29.83
2018-03-26T06:23:52.237Z,30.13
2018-03-26T06:26:19.830Z,35.30
2018-03-26T06:28:47.571Z,31.87
2018-03-26T06:31:15.971Z,34.00
2018-03-26T06:33:44.432Z,30.53
2018-03-26T06:36:31.730Z,49.70
2018-03-26T06:39:00.190Z,37.43
2018-03-26T06:41:27.788Z,36.97
2018-03-26T06:43:55.409Z,35.43
2018-03-26T06:46:22.999Z,27.40
2018-03-26T06:48:50.958Z,35.03
2018-03-26T06:51:18.822Z,29.00
2018-03-26T06:53:46.451Z,35.50
2018-03-26T06:56:14.848Z,34.20
2018-03-26T06:58:43.411Z,33.27
2018-03-26T07:01:11.060Z,24.27
2018-03-26T07:03:38.658Z,27.10
2018-03-26T07:06:07.033Z,31.83
2018-03-26T07:08:34.636Z,23.87
2018-03-26T07:11:02.266Z,32.67
2018-03-26T07:13:29.896Z,32.40
2018-03-26T07:15:57.490Z,33.60
2018-03-26T07:18:25.423Z,28.53
2018-03-26T07:20:54.776Z,33.20
2018-03-26T07:23:22.379Z,31.97
2018-03-26T07:25:50.030Z,33.00
2018-03-26T07:28:17.616Z,31.93
2018-03-26T07:30:45.247Z,48.67
2018-03-26T07:33:13.732Z,33.37
2018-03-26T07:35:42.353Z,41.97
2018-03-26T07:38:09.952Z,33.47
2018-03-26T07:40:37.575Z,35.80
2018-03-26T07:43:05.171Z,30.70
2018-03-26T07:45:32.788Z,34.20
2018-03-26T07:48:01.149Z,36.27
2018-03-26T07:50:28.770Z,32.60
2018-03-26T07:52:56.353Z,38.70
2018-03-26T07:55:23.943Z,37.63
2018-03-26T07:57:51.693Z,41.73
2018-03-26T08:00:19.305Z,37.67
2018-03-26T08:02:47.672Z,45.87
2018-03-26T08:05:15.272Z,55.80
2018-03-26T08:07:43.207Z,42.70
2018-03-26T08:10:10.800Z,42.40
2018-03-26T08:12:38.392Z,46.50
2018-03-26T08:15:06.005Z,49.60
2018-03-26T08:17:33.657Z,44.30
2018-03-26T08:20:02.794Z,43.20
2018-03-26T08:22:30.423Z,50.13
2018-03-26T08:24:58.020Z,41.60
2018-03-26T08:27:26.428Z,40.90
2018-03-26T08:29:54.120Z,48.57
2018-03-26T08:32:21.818Z,49.00
2018-03-26T08:34:49.423Z,48.93
2018-03-26T08:37:17.054Z,46.60
2018-03-26T08:39:46.091Z,42.73
2018-03-26T08:42:13.700Z,42.03
2018-03-26T08:44:41.315Z,43.97
2018-03-26T08:47:08.945Z,46.17
2018-03-26T08:49:36.573Z,49.13
2018-03-26T08:52:04.151Z,48.53
2018-03-26T08:54:31.891Z,54.40
2018-03-26T08:56:59.600Z,47.60
2018-03-26T08:59:27.196Z,48.60
2018-03-26T09:01:55.600Z,48.63
2018-03-26T09:04:23.216Z,56.33
2018-03-26T09:06:51.595Z,55.47
2018-03-26T09:09:19.203Z,51.20
2018-03-26T09:11:47.921Z,51.27
2018-03-26T09:14:15.511Z,49.07
2018-03-26T09:16:43.096Z,59.90
2018-03-26T09:19:10.720Z,44.00
2018-03-26T09:21:38.296Z,76.53
2018-03-26T09:24:05.907Z,44.63
2018-03-26T09:26:34.290Z,50.03
2018-03-26T09:29:02.712Z,36.20
2018-03-26T09:31:30.308Z,46.47
2018-03-26T09:33:57.910Z,44.20
2018-03-26T09:36:26.302Z,39.20
2018-03-26T09:38:53.926Z,42.40
2018-03-26T09:41:21.540Z,43.33
2018-03-26T09:43:49.142Z,42.17
2018-03-26T09:46:16.753Z,43.90
2018-03-26T09:48:45.117Z,43.73
2018-03-26T09:51:13.606Z,44.03
2018-03-26T09:53:41.225Z,38.07
2018-03-26T09:56:08.843Z,47.97
2018-03-26T09:58:37.264Z,40.20
2018-03-26T10:01:04.909Z,40.93
2018-03-26T10:03:33.351Z,38.50
2018-03-26T10:06:00.942Z,35.40
2018-03-26T10:08:28.613Z,39.13
2018-03-26T10:10:56.215Z,40.50
2018-03-26T10:13:23.789Z,41.50
2018-03-26T10:15:51.518Z,48.17
2018-03-26T10:18:19.885Z,42.20
2018-03-26T10:20:47.511Z,43.70
2018-03-26T10:23:15.108Z,45.77
2018-03-26T10:25:44.216Z,41.00
2018-03-26T10:28:11.931Z,38.03
2018-03-26T10:30:39.566Z,38.30
2018-03-26T10:33:07.936Z,43.10
2018-03-26T10:35:35.546Z,41.53
2018-03-26T10:38:03.180Z,43.03
2018-03-26T10:40:31.571Z,55.60
2018-03-26T10:42:59.954Z,46.00
2018-03-26T10:45:28.326Z,39.93
2018-03-26T10:47:56.697Z,46.10
2018-03-26T10:50:24.381Z,50.10
2018-03-26T10:52:52.757Z,47.20
2018-03-26T10:55:21.106Z,47.33
2018-03-26T10:57:48.701Z,53.53
2018-03-26T11:00:16.321Z,49.03
2018-03-26T11:02:43.938Z,48.27
2018-03-26T11:05:12.322Z,43.07
2018-03-26T11:07:40.694Z,45.50
2018-03-26T11:10:08.355Z,46.10
2018-03-26T11:12:35.940Z,48.20
2018-03-26T11:15:04.335Z,49.63
2018-03-26T11:17:32.783Z,46.37
2018-03-26T11:20:00.412Z,50.60
2018-03-26T11:22:28.052Z,51.53
2018-03-26T11:24:56.424Z,49.70
2018-03-26T11:27:24.862Z,47.50
2018-03-26T11:29:52.465Z,47.53
2018-03-26T11:32:20.074Z,47.43
2018-03-26T11:34:47.685Z,50.53
2018-03-26T11:37:15.312Z,53.70
2018-03-26T11:39:42.931Z,47.17
2018-03-26T11:42:11.326Z,44.10
2018-03-26T11:44:39.748Z,45.60
2018-03-26T11:47:07.356Z,143.47
2018-03-26T11:49:35.035Z,50.33
2018-03-26T11:52:02.748Z,45.97
2018-03-26T11:54:30.374Z,41.47
2018-03-26T11:56:58.739Z,48.47
2018-03-26T11:59:26.390Z,42.70
2018-03-26T12:01:55.757Z,52.33
2018-03-26T12:04:23.381Z,50.10
2018-03-26T12:06:51.869Z,47.30
2018-03-26T12:09:19.492Z,46.43
2018-03-26T12:11:47.083Z,49.43
2018-03-26T12:14:14.683Z,55.20
2018-03-26T12:16:43.045Z,43.60
2018-03-26T12:19:10.672Z,51.70
2018-03-26T12:21:38.359Z,46.37
2018-03-26T12:24:18.334Z,45.13
2018-03-26T12:26:46.700Z,44.93
2018-03-26T12:29:26.601Z,47.17
2018-03-26T12:31:54.216Z,50.70
2018-03-26T12:34:34.071Z,42.67
2018-03-26T12:37:02.494Z,44.10
2018-03-26T12:39:30.100Z,42.33
2018-03-26T12:41:57.716Z,49.23
2018-03-26T12:47:32.416Z,61.93
2018-03-26T12:50:00.786Z,47.20
2018-03-26T12:52:40.304Z,50.33
2018-03-26T12:55:07.897Z,43.70
2018-03-26T12:57:47.543Z,43.30
2018-03-26T13:00:15.147Z,38.53
2018-03-26T13:02:42.793Z,40.63
2018-03-26T13:05:11.165Z,51.37
2018-03-26T13:07:39.585Z,46.93
2018-03-26T13:10:07.177Z,46.53
2018-03-26T13:12:34.764Z,54.57
2018-03-26T13:15:03.193Z,37.17
2018-03-26T13:17:30.792Z,47.13
2018-03-26T13:19:58.434Z,54.90
2018-03-26T13:22:26.031Z,50.27
2018-03-26T13:24:53.893Z,51.30
2018-03-26T13:27:21.484Z,47.00
2018-03-26T13:29:49.077Z,43.90
2018-03-26T13:32:16.886Z,52.23
2018-03-26T13:34:44.497Z,48.97
2018-03-26T13:37:12.887Z,44.37
2018-03-26T13:39:41.263Z,52.17
2018-03-26T13:42:09.183Z,46.87
2018-03-26T13:44:36.790Z,41.57
2018-03-26T13:47:04.353Z,52.13
2018-03-26T13:49:31.994Z,45.77
2018-03-26T13:51:59.594Z,51.33
2018-03-26T13:54:27.198Z,49.90
2018-03-26T13:56:54.813Z,52.93
2018-03-26T13:59:22.438Z,50.90
2018-03-26T14:01:50.036Z,54.33
2018-03-26T14:04:19.188Z,50.77
2018-03-26T14:06:46.975Z,49.37
2018-03-26T14:09:26.477Z,46.73
2018-03-26T14:12:06.645Z,45.33
2018-03-26T14:14:45.941Z,50.60
2018-03-26T14:17:25.416Z,49.50
2018-03-26T14:19:53.107Z,44.93
2018-03-26T14:22:20.722Z,46.30
2018-03-26T14:24:48.335Z,43.70
2018-03-26T14:27:15.952Z,47.97
2018-03-26T14:29:43.547Z,43.93
2018-03-26T14:32:11.251Z,49.60
2018-03-26T14:34:38.850Z,56.53
2018-03-26T14:37:06.459Z,60.30
2018-03-26T14:39:34.141Z,51.97
2018-03-26T14:42:01.754Z,48.33
2018-03-26T14:44:30.133Z,43.23
2018-03-26T14:46:57.734Z,78.30
2018-03-26T14:49:25.381Z,48.07
2018-03-26T14:51:53.032Z,53.03
2018-03-26T14:54:21.517Z,42.93
2018-03-26T14:56:49.905Z,41.37
2018-03-26T14:59:18.288Z,51.43
2018-03-26T15:01:46.661Z,53.10
2018-03-26T15:04:15.048Z,52.00
2018-03-26T15:06:43.486Z,42.60
2018-03-26T15:09:11.105Z,48.40
2018-03-26T15:11:39.513Z,47.30
2018-03-26T15:14:07.211Z,50.87
2018-03-26T15:16:34.828Z,46.57
2018-03-26T15:19:02.454Z,46.87
2018-03-26T15:21:30.073Z,53.40
2018-03-26T15:23:57.927Z,55.77
2018-03-26T15:26:26.324Z,50.27
2018-03-26T15:28:53.953Z,50.30
2018-03-26T15:31:21.561Z,52.13
2018-03-26T15:33:49.139Z,51.50
2018-03-26T15:36:16.793Z,52.43
2018-03-26T15:38:44.400Z,52.83
2018-03-26T15:41:12.037Z,61.03
2018-03-26T15:43:39.665Z,58.37
2018-03-26T15:46:08.066Z,53.73
2018-03-26T15:48:36.477Z,70.23
2018-03-26T15:51:04.205Z,57.03
2018-03-26T15:53:32.606Z,57.93
2018-03-26T15:56:00.220Z,61.53
2018-03-26T15:58:27.865Z,54.90
2018-03-26T16:00:55.483Z,51.70
2018-03-26T16:03:24.376Z,58.17
2018-03-26T16:05:52.771Z,51.93
2018-03-26T16:08:21.208Z,63.30
2018-03-26T16:10:48.841Z,63.87
2018-03-26T16:13:16.461Z,57.70
2018-03-26T16:15:44.915Z,68.50
2018-03-26T16:18:12.547Z,61.60
2018-03-26T16:20:40.210Z,68.53
2018-03-26T16:23:07.831Z,59.13
2018-03-26T16:25:35.427Z,68.20
2018-03-26T16:28:03.847Z,65.20
2018-03-26T16:30:31.479Z,81.00
2018-03-26T16:32:59.886Z,204.33
2018-03-26T16:35:27.541Z,84.77
2018-03-26T16:37:55.975Z,68.70
2018-03-26T16:40:23.655Z,67.67
2018-03-26T16:42:53.915Z,61.40
2018-03-26T16:45:21.577Z,62.27
2018-03-26T16:47:49.940Z,60.00
2018-03-26T16:50:18.512Z,65.87
2018-03-26T16:52:46.162Z,65.20
2018-03-26T16:55:13.826Z,61.37
2018-03-26T16:57:41.425Z,69.77
2018-03-26T17:00:09.056Z,63.20
2018-03-26T17:02:36.746Z,58.40
2018-03-26T17:05:05.423Z,52.57
2018-03-26T17:07:33.110Z,51.97
2018-03-26T17:10:00.739Z,65.13
2018-03-26T17:12:28.372Z,53.67
2018-03-26T17:14:56.106Z,55.17
2018-03-26T17:17:23.724Z,61.80
2018-03-26T17:19:51.363Z,58.43
2018-03-26T17:22:19.763Z,52.37
2018-03-26T17:24:48.251Z,51.57
2018-03-26T17:27:16.714Z,60.63
2018-03-26T17:29:45.117Z,61.10
2018-03-26T17:32:13.649Z,62.60
2018-03-26T17:34:41.274Z,61.00
2018-03-26T17:37:09.691Z,55.60
2018-03-26T17:39:37.326Z,52.10
2018-03-26T17:42:04.959Z,60.27
2018-03-26T17:44:32.775Z,62.10
2018-03-26T17:47:00.422Z,57.90
2018-03-26T17:49:28.139Z,59.70
2018-03-26T17:51:56.571Z,62.70
2018-03-26T17:54:25.137Z,64.87
2018-03-26T17:56:52.801Z,56.53
2018-03-26T17:59:21.276Z,53.33
2018-03-26T18:01:49.025Z,59.70
2018-03-26T18:04:16.725Z,59.67
2018-03-26T18:06:44.431Z,61.53
2018-03-26T18:09:12.581Z,66.97
2018-03-26T18:11:41.261Z,65.07
2018-03-26T18:14:08.929Z,64.43
2018-03-26T18:16:36.595Z,65.07
2018-03-26T18:19:05.026Z,64.30
2018-03-26T18:21:33.293Z,63.20
2018-03-26T18:24:01.062Z,63.30
2018-03-26T18:26:28.864Z,61.40
2018-03-26T18:28:56.566Z,67.93
2018-03-26T18:31:24.325Z,63.80
2018-03-26T18:33:52.094Z,72.70
2018-03-26T18:36:20.110Z,69.10
2018-03-26T18:38:47.852Z,88.67
2018-03-26T18:41:16.354Z,113.10
2018-03-26T18:43:44.834Z,84.27
2018-03-26T18:46:13.326Z,77.90
2018-03-26T18:48:41.257Z,81.43
2018-03-26T18:51:10.525Z,78.60
2018-03-26T18:53:38.308Z,109.03
2018-03-26T18:56:06.281Z,94.93
2018-03-26T18:58:34.052Z,106.43
2018-03-26T19:01:01.950Z,113.27
2018-03-26T19:03:30.135Z,113.53
2018-03-26T19:05:59.413Z,178.53
2018-03-26T19:08:27.982Z,122.57
2018-03-26T19:10:55.870Z,65.00
2018-03-26T19:13:24.001Z,71.20
2018-03-26T19:15:51.912Z,66.20
2018-03-26T19:18:19.804Z,73.47
2018-03-26T19:20:48.263Z,71.73
2018-03-26T19:23:16.603Z,73.77
2018-03-26T19:25:47.828Z,67.40
2018-03-26T19:28:15.798Z,98.83
2018-03-26T19:30:43.657Z,97.57
2018-03-26T19:33:11.514Z,103.53
2018-03-26T19:35:40.071Z,89.63
2018-03-26T19:38:07.881Z,74.17
2018-03-26T19:40:36.219Z,83.87
2018-03-26T19:43:03.961Z,60.77
2018-03-26T19:45:31.701Z,76.00
2018-03-26T19:47:59.441Z,103.63
2018-03-26T19:50:27.066Z,136.30
2018-03-26T19:52:56.259Z,168.27
2018-03-26T19:55:23.904Z,114.13
2018-03-26T19:57:51.546Z,131.27
2018-03-26T20:00:20.804Z,130.93
2018-03-26T20:02:48.537Z,100.87
2018-03-26T20:05:16.520Z,123.90
2018-03-26T20:07:44.472Z,109.00
2018-03-26T20:10:12.142Z,80.90
2018-03-26T20:12:39.852Z,65.37
2018-03-26T20:15:07.541Z,56.37
2018-03-26T20:17:36.704Z,56.57
2018-03-26T20:20:04.383Z,55.27
2018-03-26T20:22:32.879Z,56.90
2018-03-26T20:25:00.638Z,62.70
2018-03-26T20:27:28.328Z,57.33
2018-03-26T20:29:56.846Z,63.50
2018-03-26T20:32:24.535Z,62.67
2018-03-26T20:34:52.250Z,70.40
2018-03-26T20:37:20.705Z,70.40
2018-03-26T20:39:48.489Z,69.00
2018-03-26T20:42:16.311Z,58.63
2018-03-26T20:44:43.973Z,77.80
2018-03-26T20:47:11.655Z,76.77
2018-03-26T20:49:39.323Z,72.57
2018-03-26T20:52:07.001Z,65.83
2018-03-26T20:54:35.021Z,82.93
2018-03-26T20:57:03.445Z,72.90
2018-03-26T20:59:31.474Z,69.20
2018-03-26T21:01:59.968Z,69.83
2018-03-26T21:04:28.488Z,67.90
2018-03-26T21:06:56.214Z,87.00
2018-03-26T21:09:24.609Z,86.83
2018-03-26T21:11:53.027Z,88.83
2018-03-26T21:14:20.655Z,99.53
2018-03-26T21:16:49.147Z,91.80
2018-03-26T21:19:17.547Z,94.00
2018-03-26T21:21:45.177Z,94.13
2018-03-26T21:24:13.571Z,85.17
2018-03-26T21:26:42.006Z,97.90
2018-03-26T21:29:09.812Z,98.50
2018-03-26T21:31:37.438Z,99.30
2018-03-26T21:34:05.035Z,100.13
2018-03-26T21:36:32.668Z,85.77
2018-03-26T21:39:00.290Z,104.10
2018-03-26T21:41:29.329Z,81.90
2018-03-26T21:43:56.947Z,77.30
2018-03-26T21:46:25.349Z,85.10
2018-03-26T21:48:53.713Z,87.77
2018-03-26T21:51:21.347Z,98.67
2018-03-26T21:53:49.077Z,102.07
2018-03-26T21:56:16.715Z,91.23
2018-03-26T21:58:45.115Z,105.77
2018-03-26T22:01:14.351Z,88.50
2018-03-26T22:03:41.969Z,78.80
2018-03-26T22:06:09.581Z,76.30
2018-03-26T22:08:37.212Z,81.40
2018-03-26T22:11:05.781Z,79.87
2018-03-26T22:13:33.382Z,87.70
2018-03-26T22:16:00.994Z,77.83
2018-03-26T22:18:28.582Z,85.10
2018-03-26T22:20:56.191Z,90.27
2018-03-26T22:23:23.783Z,86.03
2018-03-26T22:25:51.398Z,86.90
2018-03-26T22:28:19.790Z,97.03
2018-03-26T22:30:47.474Z,90.30
2018-03-26T22:33:15.086Z,99.90
2018-03-26T22:35:42.663Z,93.77
2018-03-26T22:38:11.045Z,111.23
2018-03-26T22:40:38.674Z,100.57
2018-03-26T22:43:06.522Z,106.50
2018-03-26T22:45:34.134Z,102.53
2018-03-26T22:48:01.745Z,107.53
2018-03-26T22:50:29.329Z,117.80
2018-03-26T22:52:57.156Z,112.73
2018-03-26T22:55:25.569Z,128.90
2018-03-26T22:57:53.243Z,112.00
2018-03-26T23:00:21.523Z,116.80
2018-03-26T23:02:49.140Z,119.03
2018-03-26T23:05:16.806Z,116.40
2018-03-26T23:07:45.188Z,120.87
2018-03-26T23:10:13.584Z,126.97
2018-03-26T23:12:41.995Z,111.90
2018-03-26T23:15:09.782Z,116.03
2018-03-26T23:17:37.395Z,121.10
2018-03-26T23:20:04.984Z,126.33
2018-03-26T23:22:45.296Z,118.73
2018-03-26T23:25:12.908Z,116.90
2018-03-26T23:27:41.324Z,119.23
2018-03-26T23:30:08.995Z,134.30
2018-03-26T23:32:36.637Z,130.30
2018-03-26T23:35:04.260Z,110.00
2018-03-26T23:37:33.361Z,122.80
2018-03-26T23:40:01.747Z,131.47
2018-03-26T23:42:30.137Z,126.77
2018-03-26T23:44:58.870Z,129.07
2018-03-26T23:47:26.529Z,126.43
2018-03-26T23:49:54.139Z,117.67
2018-03-26T23:52:21.764Z,123.17
2018-03-26T23:54:49.393Z,112.97
2018-03-26T23:57:17.770Z,104.07
2018-03-26T23:59:46.139Z,119.07
